Terminal Aerodrome Forecast
Issued by NWS

Home | Current Version | Previous Version | Text Only | Print | Product List | Glossary On
Versions: 1 2 3 4 5 6 7 8 9 10 11 12 13 14 15 16 17
000
FTUS43 KFGF 290500
TAFDVL
TAF
KDVL 290520Z 2906/3006 18010KT P6SM BKN035
      TEMPO 2906/2908 BKN006
     FM291200 31006KT P6SM OVC019
     FM291700 01015G21KT P6SM BKN060
      AMD LTD TO CLD VIS AND WIND=

USA.gov is the U.S. government's official web portal to all federal, state and local government web resources and services.